sensor_id;sensor_type;location;lat;lon;timestamp;pressure;altitude;pressure_sealevel;temperature;humidity
35023;BME280;21214;44.912;8.204;2023-02-13T00:00:12;101765.16;;;2.56;100.00
35023;BME280;21214;44.912;8.204;2023-02-13T00:02:39;101767.78;;;2.56;100.00
35023;BME280;21214;44.912;8.204;2023-02-13T00:05:05;101766.50;;;2.37;100.00
35023;BME280;21214;44.912;8.204;2023-02-13T00:07:30;101771.97;;;2.28;100.00
35023;BME280;21214;44.912;8.204;2023-02-13T00:09:55;101763.53;;;2.17;100.00
35023;BME280;21214;44.912;8.204;2023-02-13T00:12:21;101772.38;;;2.10;100.00
35023;BME280;21214;44.912;8.204;2023-02-13T00:14:46;101777.38;;;2.19;100.00
35023;BME280;21214;44.912;8.204;2023-02-13T00:17:12;101772.38;;;2.10;100.00
35023;BME280;21214;44.912;8.204;2023-02-13T00:19:37;101776.56;;;2.17;100.00
35023;BME280;21214;44.912;8.204;2023-02-13T00:22:02;101774.75;;;2.19;100.00
35023;BME280;21214;44.912;8.204;2023-02-13T00:24:28;101775.59;;;2.21;100.00
35023;BME280;21214;44.912;8.204;2023-02-13T00:26:53;101785.03;;;2.25;100.00
35023;BME280;21214;44.912;8.204;2023-02-13T00:29:19;101787.63;;;2.25;100.00
35023;BME280;21214;44.912;8.204;2023-02-13T00:31:44;101792.00;;;2.24;100.00
35023;BME280;21214;44.912;8.204;2023-02-13T00:34:10;101789.44;;;2.23;100.00
35023;BME280;21214;44.912;8.204;2023-02-13T00:36:35;101784.38;;;2.17;100.00
35023;BME280;21214;44.912;8.204;2023-02-13T00:39:00;101785.97;;;2.24;100.00
35023;BME280;21214;44.912;8.204;2023-02-13T00:41:26;101786.84;;;2.23;100.00
35023;BME280;21214;44.912;8.204;2023-02-13T00:43:51;101796.38;;;2.24;100.00
35023;BME280;21214;44.912;8.204;2023-02-13T00:46:17;101796.44;;;2.21;100.00
35023;BME280;21214;44.912;8.204;2023-02-13T00:48:42;101790.38;;;2.19;100.00
35023;BME280;21214;44.912;8.204;2023-02-13T00:51:08;101789.53;;;2.18;100.00
35023;BME280;21214;44.912;8.204;2023-02-13T00:53:34;101805.22;;;2.17;100.00
35023;BME280;21214;44.912;8.204;2023-02-13T00:56:00;101800.88;;;2.17;100.00
35023;BME280;21214;44.912;8.204;2023-02-13T00:58:25;101796.44;;;2.21;100.00
35023;BME280;21214;44.912;8.204;2023-02-13T01:00:51;101794.81;;;2.15;100.00
35023;BME280;21214;44.912;8.204;2023-02-13T01:03:17;101806.53;;;1.96;100.00
35023;BME280;21214;44.912;8.204;2023-02-13T01:05:44;101809.13;;;1.97;100.00
35023;BME280;21214;44.912;8.204;2023-02-13T01:08:09;101808.34;;;1.94;100.00
35023;BME280;21214;44.912;8.204;2023-02-13T01:10:36;101803.81;;;2.00;100.00
35023;BME280;21214;44.912;8.204;2023-02-13T01:13:01;101807.25;;;2.02;100.00
35023;BME280;21214;44.912;8.204;2023-02-13T01:15:27;101809.88;;;2.01;100.00
35023;BME280;21214;44.912;8.204;2023-02-13T01:17:53;101814.31;;;1.97;100.00
35023;BME280;21214;44.912;8.204;2023-02-13T01:20:18;101817.75;;;1.99;100.00
35023;BME280;21214;44.912;8.204;2023-02-13T01:22:44;101817.81;;;1.96;100.00
35023;BME280;21214;44.912;8.204;2023-02-13T01:25:10;101816.09;;;1.95;100.00
35023;BME280;21214;44.912;8.204;2023-02-13T01:27:35;101821.25;;;1.98;100.00
35023;BME280;21214;44.912;8.204;2023-02-13T01:30:03;101817.97;;;1.89;100.00
35023;BME280;21214;44.912;8.204;2023-02-13T01:32:28;101823.22;;;1.87;100.00
35023;BME280;21214;44.912;8.204;2023-02-13T01:34:53;101819.75;;;1.88;100.00
35023;BME280;21214;44.912;8.204;2023-02-13T01:37:19;101811.19;;;1.82;100.00
35023;BME280;21214;44.912;8.204;2023-02-13T01:39:44;101811.16;;;1.83;100.00
35023;BME280;21214;44.912;8.204;2023-02-13T01:42:15;101809.63;;;1.73;100.00
35023;BME280;21214;44.912;8.204;2023-02-13T01:47:14;101815.09;;;1.61;100.00
35023;BME280;21214;44.912;8.204;2023-02-13T01:49:43;101817.66;;;1.64;100.00
35023;BME280;21214;44.912;8.204;2023-02-13T01:52:09;101816.72;;;1.65;100.00
35023;BME280;21214;44.912;8.204;2023-02-13T01:54:35;101818.44;;;1.68;100.00
35023;BME280;21214;44.912;8.204;2023-02-13T01:57:12;101821.94;;;1.65;100.00
35023;BME280;21214;44.912;8.204;2023-02-13T01:59:40;101819.25;;;1.70;100.00
35023;BME280;21214;44.912;8.204;2023-02-13T02:02:09;101819.31;;;1.67;100.00
35023;BME280;21214;44.912;8.204;2023-02-13T02:04:35;101835.94;;;1.59;100.00
35023;BME280;21214;44.912;8.204;2023-02-13T02:07:13;101831.75;;;1.52;100.00
35023;BME280;21214;44.912;8.204;2023-02-13T02:09:40;101831.03;;;1.46;100.00
35023;BME280;21214;44.912;8.204;2023-02-13T02:12:08;101829.84;;;1.60;100.00
35023;BME280;21214;44.912;8.204;2023-02-13T02:14:37;101837.63;;;1.62;100.00
35023;BME280;21214;44.912;8.204;2023-02-13T02:17:06;101836.59;;;1.71;100.00
35023;BME280;21214;44.912;8.204;2023-02-13T02:19:43;101836.88;;;1.57;100.00
35023;BME280;21214;44.912;8.204;2023-02-13T02:22:18;101838.50;;;1.61;100.00
35023;BME280;21214;44.912;8.204;2023-02-13T02:27:46;101827.34;;;1.56;100.00
35023;BME280;21214;44.912;8.204;2023-02-13T02:35:25;101834.53;;;1.42;100.00
35023;BME280;21214;44.912;8.204;2023-02-13T02:40:48;101832.75;;;1.47;100.00
35023;BME280;21214;44.912;8.204;2023-02-13T02:48:44;101836.56;;;1.28;100.00
35023;BME280;21214;44.912;8.204;2023-02-13T02:56:50;101831.25;;;1.34;100.00
35023;BME280;21214;44.912;8.204;2023-02-13T02:59:17;101841.13;;;1.15;100.00
35023;BME280;21214;44.912;8.204;2023-02-13T03:02:03;101841.16;;;1.13;100.00
35023;BME280;21214;44.912;8.204;2023-02-13T03:04:52;101839.50;;;1.11;100.00
35023;BME280;21214;44.912;8.204;2023-02-13T03:07:37;101840.25;;;1.17;100.00
35023;BME280;21214;44.912;8.204;2023-02-13T03:10:05;101841.88;;;1.21;100.00
35023;BME280;21214;44.912;8.204;2023-02-13T03:12:51;101842.09;;;1.09;100.00
35023;BME280;21214;44.912;8.204;2023-02-13T03:15:37;101838.88;;;0.95;100.00
35023;BME280;21214;44.912;8.204;2023-02-13T03:18:23;101835.50;;;0.90;100.00
35023;BME280;21214;44.912;8.204;2023-02-13T03:21:10;101837.28;;;0.88;100.00
35023;BME280;21214;44.912;8.204;2023-02-13T03:29:43;101835.50;;;0.90;100.00
35023;BME280;21214;44.912;8.204;2023-02-13T03:38:09;101839.84;;;0.90;100.00
35023;BME280;21214;44.912;8.204;2023-02-13T03:40:47;101846.00;;;0.84;100.00
35023;BME280;21214;44.912;8.204;2023-02-13T03:43:35;101845.03;;;0.91;100.00
35023;BME280;21214;44.912;8.204;2023-02-13T03:46:03;101839.78;;;0.94;100.00
35023;BME280;21214;44.912;8.204;2023-02-13T03:48:31;101844.34;;;0.81;100.00
35023;BME280;21214;44.912;8.204;2023-02-13T03:51:21;101845.97;;;0.87;100.00
35023;BME280;21214;44.912;8.204;2023-02-13T03:53:50;101850.53;;;0.73;100.00
35023;BME280;21214;44.912;8.204;2023-02-13T03:56:17;101849.91;;;0.59;100.00
35023;BME280;21214;44.912;8.204;2023-02-13T03:59:03;101853.41;;;0.55;100.00
35023;BME280;21214;44.912;8.204;2023-02-13T04:01:44;101850.88;;;0.50;100.00
35023;BME280;21214;44.912;8.204;2023-02-13T04:04:11;101864.53;;;0.64;100.00
35023;BME280;21214;44.912;8.204;2023-02-13T04:06:42;101862.25;;;0.45;100.00
35023;BME280;21214;44.912;8.204;2023-02-13T04:09:12;101864.66;;;0.57;100.00
35023;BME280;21214;44.912;8.204;2023-02-13T04:11:39;101860.31;;;0.56;100.00
35023;BME280;21214;44.912;8.204;2023-02-13T04:14:13;101856.97;;;0.48;100.00
35023;BME280;21214;44.912;8.204;2023-02-13T04:16:41;101863.16;;;0.40;100.00
35023;BME280;21214;44.912;8.204;2023-02-13T04:19:08;101861.47;;;0.36;100.00
35023;BME280;21214;44.912;8.204;2023-02-13T04:21:36;101860.66;;;0.34;100.00
35023;BME280;21214;44.912;8.204;2023-02-13T04:24:01;101859.06;;;0.24;100.00
35023;BME280;21214;44.912;8.204;2023-02-13T04:26:31;101852.28;;;0.14;100.00
35023;BME280;21214;44.912;8.204;2023-02-13T04:28:57;101855.97;;;-0.02;100.00
35023;BME280;21214;44.912;8.204;2023-02-13T04:31:23;101855.25;;;-0.15;100.00
35023;BME280;21214;44.912;8.204;2023-02-13T04:33:48;101855.47;;;-0.31;100.00
35023;BME280;21214;44.912;8.204;2023-02-13T04:36:13;101853.97;;;-0.52;100.00
35023;BME280;21214;44.912;8.204;2023-02-13T04:38:39;101860.03;;;-0.52;100.00
35023;BME280;21214;44.912;8.204;2023-02-13T04:41:04;101855.69;;;-0.51;100.00
35023;BME280;21214;44.912;8.204;2023-02-13T04:43:29;101854.78;;;-0.47;100.00
35023;BME280;21214;44.912;8.204;2023-02-13T04:45:54;101861.53;;;-0.32;100.00
35023;BME280;21214;44.912;8.204;2023-02-13T04:48:20;101860.53;;;-0.21;100.00
35023;BME280;21214;44.912;8.204;2023-02-13T04:50:45;101861.19;;;-0.05;100.00
35023;BME280;21214;44.912;8.204;2023-02-13T04:53:12;101860.13;;;0.10;100.00
35023;BME280;21214;44.912;8.204;2023-02-13T04:55:37;101861.09;;;0.04;100.00
35023;BME280;21214;44.912;8.204;2023-02-13T04:58:02;101856.81;;;0.00;100.00
35023;BME280;21214;44.912;8.204;2023-02-13T05:00:28;101849.13;;;-0.09;100.00
35023;BME280;21214;44.912;8.204;2023-02-13T05:02:54;101847.41;;;-0.09;100.00
35023;BME280;21214;44.912;8.204;2023-02-13T05:05:24;101850.63;;;0.07;100.00
35023;BME280;21214;44.912;8.204;2023-02-13T05:07:49;101850.53;;;0.16;100.00
35023;BME280;21214;44.912;8.204;2023-02-13T05:10:14;101859.13;;;0.18;100.00
35023;BME280;21214;44.912;8.204;2023-02-13T05:12:39;101852.44;;;0.05;100.00
35023;BME280;21214;44.912;8.204;2023-02-13T05:15:05;101857.78;;;-0.07;100.00
35023;BME280;21214;44.912;8.204;2023-02-13T05:17:30;101862.91;;;-0.04;100.00
35023;BME280;21214;44.912;8.204;2023-02-13T05:19:56;101860.38;;;-0.07;100.00
35023;BME280;21214;44.912;8.204;2023-02-13T05:22:21;101857.63;;;0.05;100.00
35023;BME280;21214;44.912;8.204;2023-02-13T05:25:05;101865.34;;;0.10;100.00
35023;BME280;21214;44.912;8.204;2023-02-13T05:27:31;101855.09;;;-0.01;100.00
35023;BME280;21214;44.912;8.204;2023-02-13T05:29:56;101855.97;;;-0.02;100.00
35023;BME280;21214;44.912;8.204;2023-02-13T05:32:21;101873.56;;;-0.25;100.00
35023;BME280;21214;44.912;8.204;2023-02-13T05:34:47;101865.00;;;-0.33;100.00
35023;BME280;21214;44.912;8.204;2023-02-13T05:37:12;101865.81;;;-0.28;100.00
35023;BME280;21214;44.912;8.204;2023-02-13T05:39:37;101864.78;;;-0.15;100.00
35023;BME280;21214;44.912;8.204;2023-02-13T05:42:03;101853.47;;;-0.08;100.00
35023;BME280;21214;44.912;8.204;2023-02-13T05:44:29;101856.06;;;-0.11;100.00
35023;BME280;21214;44.912;8.204;2023-02-13T05:46:54;101858.78;;;-0.20;100.00
35023;BME280;21214;44.912;8.204;2023-02-13T05:49:20;101854.41;;;-0.15;100.00
35023;BME280;21214;44.912;8.204;2023-02-13T05:51:45;101854.38;;;-0.12;100.00
35023;BME280;21214;44.912;8.204;2023-02-13T05:54:11;101858.78;;;-0.19;100.00
35023;BME280;21214;44.912;8.204;2023-02-13T05:56:37;101855.53;;;-0.36;100.00
35023;BME280;21214;44.912;8.204;2023-02-13T05:59:02;101857.56;;;-0.62;100.00
35023;BME280;21214;44.912;8.204;2023-02-13T06:01:27;101867.13;;;-0.67;100.00
35023;BME280;21214;44.912;8.204;2023-02-13T06:03:53;101872.38;;;-0.75;100.00
35023;BME280;21214;44.912;8.204;2023-02-13T06:06:18;101870.59;;;-0.70;100.00
35023;BME280;21214;44.912;8.204;2023-02-13T06:08:44;101869.81;;;-0.78;100.00
35023;BME280;21214;44.912;8.204;2023-02-13T06:11:09;101870.53;;;-0.64;100.00
35023;BME280;21214;44.912;8.204;2023-02-13T06:13:35;101873.84;;;-0.53;100.00
35023;BME280;21214;44.912;8.204;2023-02-13T06:16:00;101872.97;;;-0.49;100.00
35023;BME280;21214;44.912;8.204;2023-02-13T06:18:25;101867.00;;;-0.57;100.00
35023;BME280;21214;44.912;8.204;2023-02-13T06:20:51;101867.28;;;-0.84;100.00
35023;BME280;21214;44.912;8.204;2023-02-13T06:23:16;101872.44;;;-0.81;100.00
35023;BME280;21214;44.912;8.204;2023-02-13T06:25:41;101867.28;;;-0.84;100.00
35023;BME280;21214;44.912;8.204;2023-02-13T06:28:07;101876.81;;;-0.86;100.00
35023;BME280;21214;44.912;8.204;2023-02-13T06:30:32;101873.22;;;-0.73;100.00
35023;BME280;21214;44.912;8.204;2023-02-13T06:32:58;101870.56;;;-0.67;100.00
35023;BME280;21214;44.912;8.204;2023-02-13T06:35:23;101866.13;;;-0.57;100.00
35023;BME280;21214;44.912;8.204;2023-02-13T06:37:49;101875.59;;;-0.52;100.00
35023;BME280;21214;44.912;8.204;2023-02-13T06:40:15;101863.47;;;-0.50;100.00
35023;BME280;21214;44.912;8.204;2023-02-13T06:42:41;101869.44;;;-0.42;100.00
35023;BME280;21214;44.912;8.204;2023-02-13T06:45:06;101869.38;;;-0.38;100.00
35023;BME280;21214;44.912;8.204;2023-02-13T06:47:33;101867.75;;;-0.47;100.00
35023;BME280;21214;44.912;8.204;2023-02-13T06:49:58;101867.78;;;-0.50;100.00
35023;BME280;21214;44.912;8.204;2023-02-13T06:52:24;101870.38;;;-0.49;100.00
35023;BME280;21214;44.912;8.204;2023-02-13T06:54:49;101879.78;;;-0.40;100.00
35023;BME280;21214;44.912;8.204;2023-02-13T06:57:15;101872.78;;;-0.32;100.00
35023;BME280;21214;44.912;8.204;2023-02-13T06:59:41;101880.56;;;-0.33;100.00
35023;BME280;21214;44.912;8.204;2023-02-13T07:02:08;101883.94;;;-0.25;100.00
35023;BME280;21214;44.912;8.204;2023-02-13T07:04:33;101888.28;;;-0.27;100.00
35023;BME280;21214;44.912;8.204;2023-02-13T07:06:58;101877.16;;;-0.35;100.00
35023;BME280;21214;44.912;8.204;2023-02-13T07:09:24;101889.16;;;-0.28;100.00
35023;BME280;21214;44.912;8.204;2023-02-13T07:11:49;101894.31;;;-0.25;100.00
35023;BME280;21214;44.912;8.204;2023-02-13T07:14:15;101895.16;;;-0.23;100.00
35023;BME280;21214;44.912;8.204;2023-02-13T07:16:40;101893.53;;;-0.30;100.00
35023;BME280;21214;44.912;8.204;2023-02-13T07:19:05;101899.53;;;-0.28;100.00
35023;BME280;21214;44.912;8.204;2023-02-13T07:21:31;101894.19;;;-0.13;100.00
35023;BME280;21214;44.912;8.204;2023-02-13T07:23:56;101889.72;;;-0.04;100.00
35023;BME280;21214;44.912;8.204;2023-02-13T07:26:21;101890.50;;;0.03;100.00
35023;BME280;21214;44.912;8.204;2023-02-13T07:28:47;101895.56;;;0.12;100.00
35023;BME280;21214;44.912;8.204;2023-02-13T07:31:13;101895.53;;;0.15;100.00
35023;BME280;21214;44.912;8.204;2023-02-13T07:33:38;101904.03;;;0.28;100.00
35023;BME280;21214;44.912;8.204;2023-02-13T07:36:03;101903.00;;;0.39;100.00
35023;BME280;21214;44.912;8.204;2023-02-13T07:38:30;101910.66;;;0.49;100.00
35023;BME280;21214;44.912;8.204;2023-02-13T07:40:59;101898.53;;;0.48;100.00
35023;BME280;21214;44.912;8.204;2023-02-13T07:43:26;101907.28;;;0.44;100.00
35023;BME280;21214;44.912;8.204;2023-02-13T07:45:51;101909.75;;;0.53;100.00
35023;BME280;21214;44.912;8.204;2023-02-13T07:48:23;101919.22;;;0.57;100.00
35023;BME280;21214;44.912;8.204;2023-02-13T07:50:49;101914.03;;;0.54;100.00
35023;BME280;21214;44.912;8.204;2023-02-13T07:53:14;101913.16;;;0.56;100.00
35023;BME280;21214;44.912;8.204;2023-02-13T07:55:40;101914.00;;;0.57;100.00
35023;BME280;21214;44.912;8.204;2023-02-13T07:58:05;101913.06;;;0.62;100.00
35023;BME280;21214;44.912;8.204;2023-02-13T08:00:30;101908.53;;;0.75;100.00
35023;BME280;21214;44.912;8.204;2023-02-13T08:02:59;101909.25;;;0.83;100.00
35023;BME280;21214;44.912;8.204;2023-02-13T08:05:24;101910.97;;;0.84;100.00
35023;BME280;21214;44.912;8.204;2023-02-13T08:07:50;101906.56;;;0.89;100.00
35023;BME280;21214;44.912;8.204;2023-02-13T08:10:16;101904.78;;;0.94;100.00
35023;BME280;21214;44.912;8.204;2023-02-13T08:12:59;101908.16;;;0.99;100.00
35023;BME280;21214;44.912;8.204;2023-02-13T08:15:25;101901.38;;;0.89;100.00
35023;BME280;21214;44.912;8.204;2023-02-13T08:17:50;101910.78;;;0.96;100.00
35023;BME280;21214;44.912;8.204;2023-02-13T08:20:16;101908.38;;;0.84;100.00
35023;BME280;21214;44.912;8.204;2023-02-13T08:22:42;101908.28;;;0.90;100.00
35023;BME280;21214;44.912;8.204;2023-02-13T08:25:07;101904.91;;;0.85;100.00
35023;BME280;21214;44.912;8.204;2023-02-13T08:27:33;101899.69;;;0.88;100.00
35023;BME280;21214;44.912;8.204;2023-02-13T08:29:58;101906.34;;;1.03;100.00
35023;BME280;21214;44.912;8.204;2023-02-13T08:32:24;101909.53;;;1.18;100.00
35023;BME280;21214;44.912;8.204;2023-02-13T08:34:50;101899.91;;;1.25;100.00
35023;BME280;21214;44.912;8.204;2023-02-13T08:37:16;101906.56;;;1.41;100.00
35023;BME280;21214;44.912;8.204;2023-02-13T08:39:42;101906.09;;;1.65;100.00
35023;BME280;21214;44.912;8.204;2023-02-13T08:42:07;101902.44;;;1.76;100.00
35023;BME280;21214;44.912;8.204;2023-02-13T08:44:34;101907.19;;;1.98;100.00
35023;BME280;21214;44.912;8.204;2023-02-13T08:46:59;101900.88;;;2.09;100.00
35023;BME280;21214;44.912;8.204;2023-02-13T08:49:30;101906.47;;;2.32;100.00
35023;BME280;21214;44.912;8.204;2023-02-13T08:51:56;101903.66;;;2.41;100.00
35023;BME280;21214;44.912;8.204;2023-02-13T08:54:21;101903.44;;;2.50;100.00
35023;BME280;21214;44.912;8.204;2023-02-13T08:56:47;101902.28;;;2.63;100.00
35023;BME280;21214;44.912;8.204;2023-02-13T08:59:12;101904.81;;;2.66;100.00
35023;BME280;21214;44.912;8.204;2023-02-13T09:01:38;101893.22;;;2.78;100.00
35023;BME280;21214;44.912;8.204;2023-02-13T09:04:03;101897.22;;;2.93;100.00
35023;BME280;21214;44.912;8.204;2023-02-13T09:06:28;101895.09;;;3.08;100.00
35023;BME280;21214;44.912;8.204;2023-02-13T09:08:54;101891.31;;;3.20;100.00
35023;BME280;21214;44.912;8.204;2023-02-13T09:11:19;101887.56;;;3.30;100.00
35023;BME280;21214;44.912;8.204;2023-02-13T09:13:47;101889.22;;;3.34;100.00
35023;BME280;21214;44.912;8.204;2023-02-13T09:16:12;101888.25;;;3.37;100.00
35023;BME280;21214;44.912;8.204;2023-02-13T09:18:38;101884.38;;;3.53;100.00
35023;BME280;21214;44.912;8.204;2023-02-13T09:21:05;101882.34;;;3.62;100.00
35023;BME280;21214;44.912;8.204;2023-02-13T09:23:34;101883.00;;;3.70;100.00
35023;BME280;21214;44.912;8.204;2023-02-13T09:26:01;101890.03;;;3.68;100.00
35023;BME280;21214;44.912;8.204;2023-02-13T09:28:27;101887.03;;;3.82;100.00
35023;BME280;21214;44.912;8.204;2023-02-13T09:30:53;101882.53;;;3.87;100.00
35023;BME280;21214;44.912;8.204;2023-02-13T09:33:18;101879.78;;;3.92;100.00
35023;BME280;21214;44.912;8.204;2023-02-13T09:35:43;101885.56;;;4.01;100.00
35023;BME280;21214;44.912;8.204;2023-02-13T09:38:09;101881.75;;;4.13;100.00
35023;BME280;21214;44.912;8.204;2023-02-13T09:40:36;101884.78;;;4.29;100.00
35023;BME280;21214;44.912;8.204;2023-02-13T09:43:11;101883.63;;;4.37;100.00
35023;BME280;21214;44.912;8.204;2023-02-13T09:45:37;101882.34;;;4.50;100.00
35023;BME280;21214;44.912;8.204;2023-02-13T09:48:03;101875.03;;;4.62;100.00
35023;BME280;21214;44.912;8.204;2023-02-13T09:50:30;101876.44;;;4.72;100.00
35023;BME280;21214;44.912;8.204;2023-02-13T09:52:57;101873.59;;;4.79;100.00
35023;BME280;21214;44.912;8.204;2023-02-13T09:55:26;101879.34;;;4.89;100.00
35023;BME280;21214;44.912;8.204;2023-02-13T10:00:38;101876.13;;;5.07;100.00
35023;BME280;21214;44.912;8.204;2023-02-13T10:03:14;101876.66;;;5.18;100.00
35023;BME280;21214;44.912;8.204;2023-02-13T10:05:52;101875.47;;;5.27;99.99
35023;BME280;21214;44.912;8.204;2023-02-13T10:10:56;101880.81;;;5.49;99.42
35023;BME280;21214;44.912;8.204;2023-02-13T10:13:27;101878.78;;;5.57;98.34
35023;BME280;21214;44.912;8.204;2023-02-13T10:18:54;101875.56;;;5.73;97.18
35023;BME280;21214;44.912;8.204;2023-02-13T10:21:19;101874.44;;;5.81;97.05
35023;BME280;21214;44.912;8.204;2023-02-13T10:24:00;101868.94;;;5.88;96.72
35023;BME280;21214;44.912;8.204;2023-02-13T10:26:33;101868.72;;;5.94;96.66
35023;BME280;21214;44.912;8.204;2023-02-13T10:29:20;101869.31;;;6.01;95.71
35023;BME280;21214;44.912;8.204;2023-02-13T10:32:06;101866.41;;;6.08;94.85
35023;BME280;21214;44.912;8.204;2023-02-13T10:34:34;101860.84;;;6.18;94.47
35023;BME280;21214;44.912;8.204;2023-02-13T10:37:01;101858.91;;;6.23;93.48
35023;BME280;21214;44.912;8.204;2023-02-13T10:39:28;101844.63;;;6.30;92.70
35023;BME280;21214;44.912;8.204;2023-02-13T10:42:05;101843.31;;;6.41;92.99
35023;BME280;21214;44.912;8.204;2023-02-13T10:44:40;101849.94;;;6.50;92.83
35023;BME280;21214;44.912;8.204;2023-02-13T10:47:20;101845.09;;;6.61;94.08
35023;BME280;21214;44.912;8.204;2023-02-13T10:49:59;101839.41;;;6.72;93.76
35023;BME280;21214;44.912;8.204;2023-02-13T11:04:59;101817.47;;;7.15;91.19
35023;BME280;21214;44.912;8.204;2023-02-13T11:07:24;101823.38;;;7.20;88.04
35023;BME280;21214;44.912;8.204;2023-02-13T11:09:51;101816.03;;;7.28;88.08
35023;BME280;21214;44.912;8.204;2023-02-13T11:12:30;101805.13;;;7.37;87.76
35023;BME280;21214;44.912;8.204;2023-02-13T11:15:00;101813.38;;;7.48;85.88
35023;BME280;21214;44.912;8.204;2023-02-13T11:17:27;101804.94;;;7.60;84.58
35023;BME280;21214;44.912;8.204;2023-02-13T11:19:55;101803.63;;;7.70;84.57
35023;BME280;21214;44.912;8.204;2023-02-13T11:22:25;101801.47;;;7.78;83.23
35023;BME280;21214;44.912;8.204;2023-02-13T11:24:52;101797.59;;;7.87;82.21
35023;BME280;21214;44.912;8.204;2023-02-13T11:27:22;101798.22;;;7.92;81.44
35023;BME280;21214;44.912;8.204;2023-02-13T11:29:53;101793.38;;;8.02;79.61
35023;BME280;21214;44.912;8.204;2023-02-13T11:32:20;101788.63;;;8.10;75.62
35023;BME280;21214;44.912;8.204;2023-02-13T11:34:47;101781.22;;;8.18;74.69
35023;BME280;21214;44.912;8.204;2023-02-13T11:37:27;101773.75;;;8.28;74.88
35023;BME280;21214;44.912;8.204;2023-02-13T11:39:54;101778.50;;;8.38;74.60
35023;BME280;21214;44.912;8.204;2023-02-13T11:42:25;101779.69;;;8.50;74.67
35023;BME280;21214;44.912;8.204;2023-02-13T11:44:51;101767.88;;;8.58;73.23
35023;BME280;21214;44.912;8.204;2023-02-13T11:50:02;101772.91;;;8.80;72.02
35023;BME280;21214;44.912;8.204;2023-02-13T11:52:30;101764.44;;;8.91;70.72
35023;BME280;21214;44.912;8.204;2023-02-13T11:55:00;101762.97;;;9.02;69.97
35023;BME280;21214;44.912;8.204;2023-02-13T11:57:30;101759.63;;;9.16;70.16
35023;BME280;21214;44.912;8.204;2023-02-13T11:59:56;101744.03;;;9.29;71.00
35023;BME280;21214;44.912;8.204;2023-02-13T12:02:23;101750.25;;;9.43;68.74
35023;BME280;21214;44.912;8.204;2023-02-13T12:04:50;101747.13;;;9.53;67.23
35023;BME280;21214;44.912;8.204;2023-02-13T12:07:28;101736.06;;;9.62;66.62
35023;BME280;21214;44.912;8.204;2023-02-13T12:12:41;101734.06;;;9.82;66.41
35023;BME280;21214;44.912;8.204;2023-02-13T12:15:19;101726.13;;;9.98;66.41
35023;BME280;21214;44.912;8.204;2023-02-13T12:17:46;101724.66;;;10.08;64.88
35023;BME280;21214;44.912;8.204;2023-02-13T12:20:14;101722.31;;;10.19;66.35
35023;BME280;21214;44.912;8.204;2023-02-13T12:22:58;101725.28;;;10.29;65.10
35023;BME280;21214;44.912;8.204;2023-02-13T12:40:48;101696.47;;;10.98;61.44
35023;BME280;21214;44.912;8.204;2023-02-13T12:43:31;101684.97;;;11.14;60.29
35023;BME280;21214;44.912;8.204;2023-02-13T12:48:47;101674.03;;;11.34;58.80
35023;BME280;21214;44.912;8.204;2023-02-13T12:53:48;101677.59;;;11.33;59.66
35023;BME280;21214;44.912;8.204;2023-02-13T13:01:24;101650.84;;;11.66;58.22
35023;BME280;21214;44.912;8.204;2023-02-13T13:06:54;101650.09;;;11.90;57.75
35023;BME280;21214;44.912;8.204;2023-02-13T13:09:28;101651.66;;;12.07;56.97
35023;BME280;21214;44.912;8.204;2023-02-13T13:14:31;101642.78;;;12.21;56.56
35023;BME280;21214;44.912;8.204;2023-02-13T13:17:10;101636.66;;;12.33;56.00
35023;BME280;21214;44.912;8.204;2023-02-13T13:27:25;101618.47;;;12.66;54.51
35023;BME280;21214;44.912;8.204;2023-02-13T13:32:20;101616.13;;;12.87;53.80
35023;BME280;21214;44.912;8.204;2023-02-13T13:34:46;101610.41;;;12.93;53.16
35023;BME280;21214;44.912;8.204;2023-02-13T13:39:53;101602.97;;;13.11;52.52
35023;BME280;21214;44.912;8.204;2023-02-13T13:42:34;101600.66;;;13.19;51.75
35023;BME280;21214;44.912;8.204;2023-02-13T13:50:27;101593.63;;;13.31;51.67
35023;BME280;21214;44.912;8.204;2023-02-13T13:58:51;101584.88;;;12.92;53.11
35023;BME280;21214;44.912;8.204;2023-02-13T14:03:51;101586.25;;;12.72;54.59
35023;BME280;21214;44.912;8.204;2023-02-13T14:06:21;101585.22;;;12.62;54.71
35023;BME280;21214;44.912;8.204;2023-02-13T14:13:57;101577.47;;;12.34;55.75
35023;BME280;21214;44.912;8.204;2023-02-13T14:19:03;101574.38;;;12.15;56.80
35023;BME280;21214;44.912;8.204;2023-02-13T14:21:29;101581.78;;;12.10;57.33
35023;BME280;21214;44.912;8.204;2023-02-13T14:23:54;101574.25;;;12.04;57.79
35023;BME280;21214;44.912;8.204;2023-02-13T14:26:29;101574.88;;;11.95;58.46
35023;BME280;21214;44.912;8.204;2023-02-13T14:28:57;101566.69;;;11.85;58.67
35023;BME280;21214;44.912;8.204;2023-02-13T14:31:32;101576.66;;;11.81;59.21
35023;BME280;21214;44.912;8.204;2023-02-13T14:34:03;101580.47;;;11.77;59.09
35023;BME280;21214;44.912;8.204;2023-02-13T14:36:30;101575.34;;;11.74;59.58
35023;BME280;21214;44.912;8.204;2023-02-13T14:40:10;101572.75;;;11.73;59.52
35023;BME280;21214;44.912;8.204;2023-02-13T14:46:46;101566.47;;;11.61;60.51
35023;BME280;21214;44.912;8.204;2023-02-13T14:49:19;101565.53;;;11.62;60.80
35023;BME280;21214;44.912;8.204;2023-02-13T14:51:47;101569.25;;;11.60;60.29
35023;BME280;21214;44.912;8.204;2023-02-13T14:56:39;101564.06;;;11.58;60.74
35023;BME280;21214;44.912;8.204;2023-02-13T14:59:14;101559.53;;;11.60;61.39
35023;BME280;21214;44.912;8.204;2023-02-13T15:04:29;101552.63;;;11.58;61.50
35023;BME280;21214;44.912;8.204;2023-02-13T15:06:56;101562.34;;;11.57;61.93
35023;BME280;21214;44.912;8.204;2023-02-13T15:09:31;101554.63;;;11.54;61.92
35023;BME280;21214;44.912;8.204;2023-02-13T15:11:58;101557.47;;;11.51;61.86
35023;BME280;21214;44.912;8.204;2023-02-13T15:14:29;101558.41;;;11.50;62.67